首页
METAR-TAF:

METAR-TAF

机场 :

道森克里克, 不列颠哥伦比亚, 加拿大

纬度: 55-45N, 经度: 120-11W, 海拔: 655米

当前天气观测

该预报发布于48分钟前的03:00 UTC
风速6节,风向东转东北
温度 -5°C
湿度 68%
气压 1021 hPa
能見度: 14.5公里
天空无云

METAR: CYDQ 110300Z AUTO 06006KT 9SM CLR M05/M10 A3014 RMK SLP250

时间: 20:48 (03:48 UTC)

预报

该预报发布于3小时和10分钟前的00:38 UTC
预报有效从11日的 01点(UTC)到 11日的 05点(UTC)
风速8节,风向北转西北
能見度: 10公里
少量云层高于4000英尺
散云层高于8000英尺
短暂存在
从 11日的 01点(UTC)到 11日的 05点(UTC)
多云层高于4000英尺
成为
从 11日的 01点(UTC)到 11日的 03点(UTC)
风速5节,风向东转东南

TAF: CYDQ 110038Z 1101/1105 34008KT P6SM FEW040 SCT080 TEMPO 1101/1105 BKN040 BECMG 1101/1103 11005KT RMK FCST BASED ON AUTO OBS. NXT FCST WILL BE ISSUED AT 111245Z

超过4000个机场的气象观测和天气预报(METAR&TAF报告)。

可查询的气象台以黄色和红色小点在地图上表示。

将鼠标移到小点上方,可查看气象台名称。

然后点击查看天气观测和预报。

如需切换地图:点击带黑十字的绿色按钮放大地图;点击带横线的绿色按钮缩小地图;或者点击绿色箭头查看邻近地区的地图。


METAR-TAF: